Dover Air Force Base
KDOV : now visible

Airfield :











YOU CAN JOIN US ON...

 
LOGIN :

Register | Disclaimer

   EN    FR    IT 

 









Legend :    VFR   Marginal VFR   IFR   Intensive IFR   Very Intensive IFR
Visi :
Ceiling :
>= 8 km
>= 3000ft
5 to 8 km
1000 to 3000 ft
1500m to 5 km
500 to 1000 ft
800 to 1500m
200 to 500 ft
< 800m
< 200 ft
Symbols :   Thunderstorms  Fog  Heavy snow  Heavy precipitations  Wind > 20 kt






- Airport Elevation : 24 ft


KDOV - Dover Air Force Base

CURRENT METAR :
  • 250826Z AUTO 01006KT 10SM OVC007 14/14 A3018 RMK AO2 CIG 006 RWY19 SLP223 $

EXPIRED METARs :
  • 250816Z AUTO 36006KT 10SM OVC006 14/14 A3018 RMK AO2 SLP223 $
  • 250756Z AUTO 36005KT 10SM OVC007 14/14 A3018 RMK AO2 CIG 003 RWY19 SLP223 T01380138 $
  • 250706Z AUTO 01006KT 8SM OVC007 14/14 A3018 RMK AO2 CIG 004 RWY19 SLP223 $
  • 250656Z AUTO 36008KT 5SM BR OVC006 14/14 A3018 RMK AO2 CIG 004 RWY19 SLP223 T01390139 $
  • 250636Z AUTO 02007KT 8SM OVC007 14/14 A3018 RMK AO2 SLP223 $
  • 250556Z AUTO 36006KT 10SM OVC009 14/13 A3018 RMK AO2 CIG 008 RWY19 SLP223 T01440129 10159 20138 58011 $

TAF COR TAF KDOV
Valid from the 25 at 08:00 until the 26 at 14:00 UTC


250821Z 2508/2614 03006KT 9000 BR OVC007 QNH3018INS
TEMPO 2508/2512 3200 BR OVC005
BECMG 2511/2512 04008KT 9000 BR OVC015 QNH3022INS
TEMPO 2512/2515 OVC009
BECMG 2514/2515 05007KT 9999 NSW OVC020 QNH3016INS
BECMG 2603/2604 12005KT 8000 BR OVC003 QNH3022INS
TEMPO 2604/2606 3200 BR
BECMG 2605/2606 12004KT 0600 FG VV000 QNH3021INS
TEMPO 2606/2612 1200 BR OVC001
BECMG 2611/2612 06005KT 1600 BR OVC005 QNH3025INS TX21/2521Z TN12/2511Z
KZDC FIR / North America



MET'MAP, your aeronautical weather chart ! - Copyright ORBIFLY December 2007 - Disclaimer

ORBIFLY MET'MAP TEAM :

Programming & Development : Alexandra Zaïnal
Concept & original design : Baudouin d'Aumeries
Assistance for programming : Marc-Olivier Méhu
Technical & hardware support : Manuel Goepfert

Contact : metmap@orbifly.com




SOURCES & CREDITS :

   NOAA       Earth
Advisory